Time;durP1;ratioP1;P1;durP2;ratioP2;P2;SDS_P1;SDS_P2;PMS_P1;PMS_P2;Temp;Humidity;BMP_temperature;BMP_pressure;BME280_temperature;BME280_humidity;BME280_pressure;Samples;Min_cycle;Max_cycle;Signal;HPM_P1;HPM_P2
2022/01/23 00:01:45;;;;;;;25.02;10.32;;;;;;;-1.00;77.69;102180.64;1645994;87;21111;-71
2022/01/23 00:04:05;;;;;;;20.35;10.23;;;;;;;-0.98;77.69;102172.72;1645265;87;20927;-71
2022/01/23 00:06:31;;;;;;;60.78;24.25;;;;;;;-0.96;77.69;102167.73;1646735;87;20888;-71
2022/01/23 00:08:57;;;;;;;76.82;27.80;;;;;;;-0.96;77.65;102154.64;1647369;87;20872;-71
2022/01/23 00:11:26;;;;;;;84.40;30.23;;;;;;;-0.94;77.72;102167.02;1647159;87;20880;-71
2022/01/23 00:19:11;;;;;;;48.80;18.25;;;;;;;-0.93;77.68;102164.09;1643525;87;21321;-71
2022/01/23 00:21:39;;;;;;;43.60;15.45;;;;;;;-0.91;77.71;102169.73;1647387;87;20955;-71
2022/01/23 00:32:01;;;;;;;39.35;15.90;;;;;;;-0.87;77.76;102175.45;1647232;87;20884;-71
2022/01/23 00:34:26;;;;;;;39.05;15.30;;;;;;;-0.85;77.80;102173.00;1647967;87;20895;-71
2022/01/23 00:36:52;;;;;;;38.73;15.55;;;;;;;-0.82;77.83;102168.09;1648134;87;20947;-71
2022/01/23 00:39:18;;;;;;;32.75;13.35;;;;;;;-0.83;77.79;102172.30;1647410;87;20914;-71
2022/01/23 00:41:45;;;;;;;28.95;12.58;;;;;;;-0.83;77.79;102187.93;1645288;87;20975;-71
2022/01/23 00:44:10;;;;;;;39.98;14.43;;;;;;;-0.83;77.76;102191.34;1645073;85;20888;-71
2022/01/23 00:46:39;;;;;;;65.67;46.27;;;;;;;-0.83;77.79;102187.93;1644516;86;20852;-71
2022/01/23 00:51:37;;;;;;;40.03;14.45;;;;;;;-0.79;77.88;102178.03;1644547;86;20911;-71
2022/01/23 00:54:07;;;;;;;35.13;13.38;;;;;;;-0.77;77.87;102175.17;1641782;87;20951;-71
2022/01/23 00:56:34;;;;;;;28.52;10.63;;;;;;;-0.78;77.84;102168.34;1644569;86;20900;-71
2022/01/23 00:59:01;;;;;;;18.40;7.92;;;;;;;-0.77;77.88;102162.48;1646330;86;20912;-71
2022/01/23 01:01:27;;;;;;;15.32;7.75;;;;;;;-0.76;77.90;102160.42;1644104;86;21084;-71
2022/01/23 01:03:53;;;;;;;27.98;11.25;;;;;;;-0.74;77.90;102170.66;1645489;87;20911;-71
2022/01/23 01:06:20;;;;;;;24.30;11.03;;;;;;;-0.73;77.93;102172.41;1644970;86;21526;-71
2022/01/23 01:08:49;;;;;;;19.45;9.30;;;;;;;-0.73;77.95;102167.33;1645196;87;26781;-71
2022/01/23 01:16:58;;;;;;;22.62;10.18;;;;;;;-0.70;77.99;102177.66;1635302;87;21278;-71
2022/01/23 01:33:08;;;;;;;17.97;8.80;;;;;;;-0.65;78.05;102204.19;1640616;87;21602;-71
2022/01/23 01:35:29;;;;;;;17.87;8.98;;;;;;;-0.66;78.02;102198.63;1641073;87;21034;-71
2022/01/23 01:37:52;;;;;;;18.07;8.93;;;;;;;-0.65;78.03;102194.42;1643480;87;20916;-71
2022/01/23 01:40:20;;;;;;;15.60;8.48;;;;;;;-0.65;78.05;102189.34;1646057;86;20923;-71
2022/01/23 01:42:47;;;;;;;17.17;8.98;;;;;;;-0.64;78.10;102186.00;1645460;86;20884;-71
2022/01/23 01:45:14;;;;;;;16.37;7.17;;;;;;;-0.63;78.13;102182.28;1645568;85;20968;-71
2022/01/23 01:47:53;;;;;;;25.17;14.93;;;;;;;-0.60;78.17;102186.66;1621705;87;21060;-71
2022/01/23 01:50:19;;;;;;;14.55;7.42;;;;;;;-0.59;78.12;102185.86;1644520;87;20963;-71
2022/01/23 01:52:46;;;;;;;18.30;7.03;;;;;;;-0.59;78.15;102191.81;1644710;86;20948;-71
2022/01/23 01:55:18;;;;;;;18.92;8.68;;;;;;;-0.57;78.16;102183.88;1645083;87;20968;-71
2022/01/23 01:57:51;;;;;;;12.82;7.75;;;;;;;-0.56;78.15;102181.82;1644016;87;20912;-70
2022/01/23 02:00:15;;;;;;;11.25;7.03;;;;;;;-0.55;78.20;102175.95;1642727;87;20936;-71
2022/01/23 02:03:19;;;;;;;15.03;8.48;;;;;;;-0.52;78.18;102179.05;1644595;87;20960;-71
2022/01/23 02:08:25;;;;;;;10.28;6.12;;;;;;;-0.51;78.20;102184.19;1639731;87;20944;-71
2022/01/23 02:10:58;;;;;;;13.60;6.42;;;;;;;-0.49;78.25;102181.72;1641355;87;20894;-71
2022/01/23 02:13:31;;;;;;;13.32;6.58;;;;;;;-0.48;78.22;102190.70;1618086;87;21775;-71
2022/01/23 02:51:43;;;;;;;80.17;25.90;;;;;;;-0.40;78.35;102174.59;1588824;90;21236;-71
2022/01/23 02:56:35;;;;;;;78.50;24.50;;;;;;;-0.40;78.42;102164.03;1576979;90;20942;-71
2022/01/23 02:59:11;;;;;;;65.03;21.87;;;;;;;-0.38;78.42;102167.93;1577750;90;21479;-71
2022/01/23 03:01:31;;;;;;;50.05;18.70;;;;;;;-0.38;78.43;102167.93;1568790;88;20983;-71
2022/01/23 03:04:01;;;;;;;33.67;12.30;;;;;;;-0.37;78.42;102168.41;1637467;87;21397;-71
2022/01/23 03:06:49;;;;;;;25.00;11.10;;;;;;;-0.36;78.42;102175.23;1648007;86;20953;-71
2022/01/23 03:11:54;;;;;;;31.68;12.15;;;;;;;-0.36;78.46;102183.73;1644361;87;20912;-71
2022/01/23 03:14:02;;;;;;;25.40;10.80;;;;;;;-0.35;78.44;102170.63;1643582;86;20948;-71
2022/01/23 03:24:48;;;;;;;19.60;7.28;;;;;;;-0.33;78.50;102167.77;1627996;87;21439;-71
2022/01/23 03:32:28;;;;;;;15.32;7.00;;;;;;;-0.31;78.51;102173.81;1642274;87;21678;-71
2022/01/23 03:34:49;;;;;;;14.13;6.60;;;;;;;-0.30;78.50;102172.15;1644082;87;21408;-71
2022/01/23 03:37:15;;;;;;;14.85;8.03;;;;;;;-0.30;78.50;102177.23;1644473;86;21448;-71
2022/01/23 03:39:41;;;;;;;12.33;6.35;;;;;;;-0.29;78.49;102176.44;1645312;87;21396;-71
2022/01/23 03:42:08;;;;;;;12.82;6.53;;;;;;;-0.30;78.52;102171.75;1644504;86;21379;-71
2022/01/23 03:44:39;;;;;;;12.75;6.15;;;;;;;-0.29;78.51;102181.52;1642399;85;21425;-71
2022/01/23 03:47:22;;;;;;;13.95;5.90;;;;;;;-0.29;78.53;102187.48;1641651;87;20924;-71
2022/01/23 03:49:42;;;;;;;11.08;6.10;;;;;;;-0.29;78.53;102181.12;1640957;87;21384;-71
2022/01/23 03:52:11;;;;;;;14.45;6.80;;;;;;;-0.27;78.53;102185.89;1641432;87;21570;-71
2022/01/23 03:54:39;;;;;;;35.58;29.67;;;;;;;-0.27;78.50;102192.25;1638726;87;21539;-71
2022/01/23 03:57:07;;;;;;;12.20;6.00;;;;;;;-0.28;78.50;102191.77;1642581;87;20912;-71
2022/01/23 03:59:35;;;;;;;9.23;4.85;;;;;;;-0.30;78.46;102195.02;1642669;87;21389;-71
2022/01/23 04:02:04;;;;;;;10.08;5.42;;;;;;;-0.31;78.50;102199.63;1641966;87;21504;-71
2022/01/23 04:04:40;;;;;;;10.88;5.40;;;;;;;-0.31;78.51;102199.23;1641051;87;21400;-71
2022/01/23 04:07:14;;;;;;;10.75;5.42;;;;;;;-0.30;78.55;102195.89;1641780;87;27370;-71
2022/01/23 04:09:41;;;;;;;11.45;5.30;;;;;;;-0.29;78.56;102200.58;1642725;87;21385;-71
2022/01/23 04:12:11;;;;;;;12.03;5.80;;;;;;;-0.27;78.62;102199.00;1633693;87;21463;-71
2022/01/23 04:14:46;;;;;;;9.95;5.42;;;;;;;-0.26;78.63;102204.56;1642285;86;21876;-71
2022/01/23 04:17:38;;;;;;;16.27;6.35;;;;;;;-0.24;78.58;102216.55;1641456;87;20971;-71
2022/01/23 04:19:56;;;;;;;10.28;6.17;;;;;;;-0.25;78.61;102218.62;1639224;87;21341;-71
2022/01/23 04:59:33;;;;;;;13.48;6.10;;;;;;;-0.19;78.69;102213.86;1661890;85;21650;-71
2022/01/23 04:59:54;;;;;;;10.13;5.70;;;;;;;-0.16;78.75;102206.41;1647383;85;21597;-71
2022/01/23 05:03:00;;;;;;;9.38;5.17;;;;;;;-0.14;78.77;102210.30;1667729;85;20918;-71
2022/01/23 05:04:52;;;;;;;9.23;4.97;;;;;;;-0.14;78.74;102218.80;1663909;85;21051;-71
2022/01/23 05:07:18;;;;;;;12.05;5.08;;;;;;;-0.13;78.77;102215.86;1667451;85;21061;-71
2022/01/23 05:09:46;;;;;;;11.12;5.60;;;;;;;-0.14;78.78;102221.34;1666710;85;21674;-71
2022/01/23 05:12:13;;;;;;;12.93;6.60;;;;;;;-0.12;78.78;102227.77;1662177;85;21161;-71
2022/01/23 05:14:44;;;;;;;10.45;5.78;;;;;;;-0.12;78.76;102229.92;1668060;85;21108;-71
2022/01/23 05:17:14;;;;;;;14.47;7.10;;;;;;;-0.11;78.80;102229.52;1667311;85;22234;-71
2022/01/23 05:19:41;;;;;;;14.13;6.87;;;;;;;-0.10;78.78;102230.00;1670246;84;20921;-71
2022/01/23 05:24:45;;;;;;;23.25;12.28;;;;;;;-0.09;78.81;102233.90;1665590;85;20941;-71
2022/01/23 05:27:10;;;;;;;30.70;14.75;;;;;;;-0.08;78.84;102233.50;1638756;87;20922;-71
2022/01/23 05:29:37;;;;;;;23.12;11.50;;;;;;;-0.06;78.84;102243.36;1628097;87;20997;-71
2022/01/23 05:32:07;;;;;;;18.30;9.95;;;;;;;-0.05;78.83;102247.65;1664835;86;20912;-71
2022/01/23 05:34:33;;;;;;;19.92;9.93;;;;;;;-0.04;78.85;102245.19;1666367;85;21450;-71
2022/01/23 05:36:59;;;;;;;17.40;9.83;;;;;;;-0.04;78.88;102243.92;1670552;85;20898;-71
2022/01/23 05:39:30;;;;;;;14.60;8.18;;;;;;;-0.03;78.88;102245.66;1644712;85;20916;-71
2022/01/23 05:41:59;;;;;;;19.12;8.88;;;;;;;-0.03;78.87;102239.31;1649398;86;20959;-71
2022/01/23 05:44:21;;;;;;;16.85;8.83;;;;;;;-0.02;78.86;102241.45;1663119;85;20905;-71
2022/01/23 05:46:48;;;;;;;57.13;25.75;;;;;;;-0.03;78.87;102244.79;1663412;86;20897;-71
2022/01/23 05:49:14;;;;;;;21.57;10.77;;;;;;;-0.04;78.90;102243.05;1669583;85;20869;-71
2022/01/23 05:51:40;;;;;;;52.30;43.80;;;;;;;-0.04;78.91;102245.19;1670054;85;21171;-71
2022/01/23 05:54:06;;;;;;;21.73;10.98;;;;;;;-0.01;79.01;102249.56;1669169;85;21642;-71
2022/01/23 05:56:32;;;;;;;19.70;11.43;;;;;;;-0.01;79.01;102249.56;1669549;85;20909;-71
2022/01/23 05:58:58;;;;;;;19.02;10.30;;;;;;;0.00;78.96;102252.58;1671498;85;20882;-71
2022/01/23 06:01:24;;;;;;;24.90;10.88;;;;;;;0.00;78.94;102251.31;1669134;85;20917;-71
2022/01/23 06:03:50;;;;;;;17.37;9.73;;;;;;;-0.01;78.95;102247.02;1670234;85;20945;-71
2022/01/23 06:06:16;;;;;;;18.85;9.83;;;;;;;0.00;78.98;102253.42;1669681;85;20953;-71
2022/01/23 06:08:43;;;;;;;15.35;9.40;;;;;;;0.00;78.96;102254.70;1670338;84;20929;-71
2022/01/23 06:11:09;;;;;;;16.52;10.03;;;;;;;0.01;78.98;102258.11;1669625;85;20862;-71
2022/01/23 06:13:36;;;;;;;18.48;10.35;;;;;;;0.03;79.01;102251.84;1669922;85;20949;-71
2022/01/23 06:16:03;;;;;;;23.50;10.20;;;;;;;0.03;78.98;102256.52;1669540;85;20929;-71
2022/01/23 06:18:29;;;;;;;17.25;10.78;;;;;;;0.03;79.00;102264.16;1669372;85;20942;-71
2022/01/23 06:20:55;;;;;;;20.68;11.97;;;;;;;0.04;79.02;102259.94;1669683;85;20886;-71
2022/01/23 06:23:24;;;;;;;14.58;8.53;;;;;;;0.04;79.02;102263.36;1669394;85;20978;-71
2022/01/23 06:25:50;;;;;;;15.78;9.45;;;;;;;0.06;79.07;102271.07;1667006;85;21457;-71
2022/01/23 06:28:38;;;;;;;20.25;9.75;;;;;;;0.05;79.03;102266.78;1670108;84;20889;-71
2022/01/23 06:31:04;;;;;;;23.12;9.18;;;;;;;0.06;79.06;102272.34;1655171;85;21028;-71
2022/01/23 06:33:30;;;;;;;21.20;10.80;;;;;;;0.05;79.08;102271.47;1669824;85;20902;-71
2022/01/23 06:35:56;;;;;;;16.12;9.00;;;;;;;0.07;79.10;102267.73;1669067;85;20936;-71
2022/01/23 06:38:22;;;;;;;17.65;9.93;;;;;;;0.08;79.11;102275.84;1669121;85;21461;-71
2022/01/23 06:40:48;;;;;;;18.32;9.30;;;;;;;0.10;79.11;102280.61;1669894;85;20882;-71
2022/01/23 06:43:14;;;;;;;17.05;9.03;;;;;;;0.10;79.13;102278.07;1669402;85;20969;-71
2022/01/23 06:45:40;;;;;;;18.30;9.08;;;;;;;0.11;79.14;102276.88;1667555;84;20953;-71
2022/01/23 06:48:07;;;;;;;17.67;9.25;;;;;;;0.12;79.12;102275.21;1650688;86;20929;-71
2022/01/23 06:50:33;;;;;;;18.70;9.60;;;;;;;0.13;79.15;102282.92;1650055;85;20925;-71
2022/01/23 06:52:59;;;;;;;17.98;9.25;;;;;;;0.14;79.17;102284.67;1656589;85;20961;-71
2022/01/23 06:55:25;;;;;;;16.15;8.95;;;;;;;0.15;79.16;102288.09;1650480;85;21582;-71
2022/01/23 06:57:51;;;;;;;20.88;10.25;;;;;;;0.15;79.17;102289.36;1653420;85;20866;-71
2022/01/23 07:00:17;;;;;;;16.02;9.65;;;;;;;0.16;79.17;102288.17;1650371;85;20957;-71
2022/01/23 07:02:43;;;;;;;18.30;9.33;;;;;;;0.17;79.20;102285.23;1646112;85;20932;-71
2022/01/23 07:05:09;;;;;;;19.57;10.58;;;;;;;0.18;79.21;102285.71;1647234;85;20969;-71
2022/01/23 07:07:35;;;;;;;16.62;9.23;;;;;;;0.18;79.22;102295.48;1646146;85;20961;-71
2022/01/23 07:10:01;;;;;;;14.43;8.78;;;;;;;0.20;79.24;102291.75;1649810;85;20905;-71
2022/01/23 07:12:27;;;;;;;20.60;10.45;;;;;;;0.21;79.25;102290.96;1644812;85;20969;-71
2022/01/23 07:14:53;;;;;;;15.40;9.33;;;;;;;0.23;79.25;102294.06;1643866;86;20914;-71
2022/01/23 07:17:21;;;;;;;39.42;30.50;;;;;;;0.25;79.23;102297.96;1649222;86;21446;-71
2022/01/23 07:19:47;;;;;;;15.78;9.38;;;;;;;0.25;79.28;102306.86;1638796;86;20976;-71
2022/01/23 07:22:13;;;;;;;16.95;9.30;;;;;;;0.26;79.29;102317.13;1649097;86;21510;-71
2022/01/23 07:24:39;;;;;;;17.37;9.40;;;;;;;0.30;79.30;102321.98;1650128;86;20927;-71
2022/01/23 07:27:16;;;;;;;16.57;9.80;;;;;;;0.31;79.34;102319.91;1643967;86;21582;-71
2022/01/23 07:29:42;;;;;;;20.90;10.13;;;;;;;0.33;79.32;102324.68;1638515;86;21046;-71
2022/01/23 07:32:09;;;;;;;20.17;10.48;;;;;;;0.33;79.32;102327.22;1647009;86;21122;-72
2022/01/23 07:34:36;;;;;;;21.00;11.35;;;;;;;0.37;79.36;102328.27;1649471;86;20891;-72
2022/01/23 07:37:02;;;;;;;;;;;;;;;0.38;79.39;102335.98;1647756;85;20950;-71
2022/01/23 07:39:28;;;;;;;20.50;10.25;;;;;;;0.43;79.51;102343.86;1649901;86;20096;-69
2022/01/23 07:41:54;;;;;;;18.42;10.28;;;;;;;0.44;79.42;102353.23;1640742;86;21440;-69
2022/01/23 07:44:20;;;;;;;22.10;11.10;;;;;;;0.44;79.40;102355.39;1647148;86;20888;-69
2022/01/23 07:46:46;;;;;;;16.82;10.23;;;;;;;0.46;79.41;102366.52;1645361;85;20935;-69
2022/01/23 07:49:12;;;;;;;19.65;10.40;;;;;;;0.48;79.42;102367.48;1642684;87;20947;-69
2022/01/23 07:51:38;;;;;;;24.17;13.10;;;;;;;0.50;79.45;102368.83;1642318;87;20968;-69
2022/01/23 07:54:05;;;;;;;17.05;9.58;;;;;;;0.54;79.46;102363.95;1643181;87;21619;-69
2022/01/23 07:56:32;;;;;;;16.25;9.90;;;;;;;0.57;79.46;102369.60;1635725;87;20920;-69
2022/01/23 07:58:58;;;;;;;17.70;9.73;;;;;;;0.58;79.46;102374.77;1642508;87;20964;-69
2022/01/23 08:01:25;;;;;;;16.90;9.28;;;;;;;0.60;79.47;102374.85;1639703;86;20968;-69
2022/01/23 08:03:51;;;;;;;18.17;9.55;;;;;;;0.63;79.50;102376.28;1642241;87;20916;-69
2022/01/23 08:06:46;;;;;;;22.13;9.85;;;;;;;0.66;79.48;102383.69;1637187;87;20972;-71
2022/01/23 08:09:25;;;;;;;17.98;10.03;;;;;;;0.69;79.49;102389.34;1625981;87;20945;-71
2022/01/23 08:12:10;;;;;;;18.85;10.40;;;;;;;0.72;79.50;102393.31;1641856;86;21441;-71
2022/01/23 08:14:56;;;;;;;17.53;7.83;;;;;;;0.74;79.50;102399.37;1641666;87;20920;-70
2022/01/23 08:17:41;;;;;;;21.85;12.30;;;;;;;0.77;79.52;102405.02;1641781;87;26868;-70
2022/01/23 08:20:26;;;;;;;22.55;11.75;;;;;;;0.80;79.50;102413.69;1638568;87;21027;-70
2022/01/23 08:23:12;;;;;;;130.15;116.17;;;;;;;0.82;79.52;102404.47;1627967;87;21412;-70
2022/01/23 08:25:57;;;;;;;253.52;119.55;;;;;;;0.84;79.51;102418.55;1638032;87;21566;-70
2022/01/23 08:28:41;;;;;;;26.27;12.80;;;;;;;0.85;79.53;102421.17;1639764;87;21131;-70
2022/01/23 08:31:26;;;;;;;20.60;12.88;;;;;;;0.87;79.54;102412.34;1632791;87;21062;-70
2022/01/23 08:34:12;;;;;;;20.02;11.55;;;;;;;0.89;79.57;102411.62;1639362;87;21111;-70
2022/01/23 08:36:57;;;;;;;24.12;13.55;;;;;;;0.92;79.57;102410.91;1640532;87;26763;-70
2022/01/23 08:39:42;;;;;;;21.70;12.43;;;;;;;0.94;79.62;102410.20;1641986;87;20919;-70
2022/01/23 08:42:27;;;;;;;24.32;13.13;;;;;;;0.98;79.64;102404.47;1639386;87;20960;-70
2022/01/23 08:45:11;;;;;;;25.15;12.65;;;;;;;1.02;79.64;102399.53;1640623;85;21003;-70
2022/01/23 08:47:55;;;;;;;25.10;12.55;;;;;;;1.04;79.65;102391.56;1643396;85;21423;-70
2022/01/23 08:50:40;;;;;;;25.08;14.18;;;;;;;1.05;79.63;102395.44;1648785;86;20983;-72
2022/01/23 08:53:25;;;;;;;69.17;49.25;;;;;;;1.08;79.63;102394.72;1621947;85;21390;-72
2022/01/23 08:56:09;;;;;;;18.55;10.85;;;;;;;1.09;79.65;102389.70;1650569;85;21854;-72
2022/01/23 08:58:54;;;;;;;17.77;9.03;;;;;;;1.10;79.62;102387.62;1649462;85;20929;-72
2022/01/23 09:01:39;;;;;;;13.98;8.15;;;;;;;1.13;79.69;102387.78;1660295;86;20928;-72
2022/01/23 09:04:23;;;;;;;13.48;8.13;;;;;;;1.20;79.73;102385.15;1645473;84;21420;-72
2022/01/23 09:07:08;;;;;;;20.80;9.50;;;;;;;1.26;79.73;102381.63;1644664;87;20915;-72
2022/01/23 09:10:00;;;;;;;12.47;8.40;;;;;;;1.34;79.77;102375.25;1644859;87;20983;-72
2022/01/23 09:15:24;;;;;;;16.85;8.65;;;;;;;1.46;79.76;102372.44;1645157;85;21047;-72
2022/01/23 09:18:09;;;;;;;83.82;32.65;;;;;;;1.49;79.76;102376.00;1645554;87;21051;-72
2022/01/23 09:20:53;;;;;;;13.93;8.23;;;;;;;1.54;79.81;102384.75;1645356;87;21118;-72
2022/01/23 09:23:38;;;;;;;16.87;8.48;;;;;;;1.61;79.81;102379.52;1645191;87;21087;-71
2022/01/23 09:26:23;;;;;;;16.23;8.95;;;;;;;1.67;79.83;102386.20;1645239;87;21111;-71
2022/01/23 09:29:16;;;;;;;14.00;8.83;;;;;;;1.73;79.85;102394.14;1643911;87;21098;-71
2022/01/23 09:32:04;;;;;;;15.20;8.90;;;;;;;1.80;79.89;102391.09;1646196;86;21070;-71
2022/01/23 09:34:51;;;;;;;19.05;9.00;;;;;;;1.87;79.90;102393.13;1645498;87;21066;-71
2022/01/23 09:37:36;;;;;;;19.60;14.30;;;;;;;1.94;79.91;102396.45;1634357;85;21120;-71
2022/01/23 09:40:21;;;;;;;104.15;77.80;;;;;;;2.03;79.89;102396.41;1645400;87;21070;-71
2022/01/23 09:43:10;;;;;;;42.98;39.42;;;;;;;2.08;79.92;102395.80;1640245;86;21085;-71
2022/01/23 09:45:55;;;;;;;15.35;9.45;;;;;;;2.16;79.95;102391.05;1646021;87;20966;-72
2022/01/23 09:48:43;;;;;;;19.75;10.53;;;;;;;2.24;79.96;102378.25;1644655;85;20948;-72
2022/01/23 09:51:28;;;;;;;15.93;8.50;;;;;;;2.29;79.86;102379.34;1638216;85;20927;-72
2022/01/23 09:54:16;;;;;;;18.67;8.98;;;;;;;2.30;79.89;102371.75;1636570;87;21031;-70
2022/01/23 09:57:03;;;;;;;15.63;9.30;;;;;;;2.31;79.91;102375.17;1635995;87;21122;-70
2022/01/23 09:59:48;;;;;;;18.25;10.10;;;;;;;2.33;79.92;102378.67;1637258;87;21070;-70
2022/01/23 10:02:33;;;;;;;27.85;18.75;;;;;;;2.35;79.93;102379.62;1633079;87;21558;-70
2022/01/23 10:05:20;;;;;;;19.10;10.40;;;;;;;2.34;79.89;102386.80;1633535;86;21123;-68
2022/01/23 10:08:07;;;;;;;20.12;10.82;;;;;;;2.34;79.91;102385.52;1635347;87;20991;-69
2022/01/23 10:10:53;;;;;;;;;;;;;;;2.34;79.96;102380.42;1643043;87;21507;-69
2022/01/23 10:13:41;;;;;;;21.87;10.35;;;;;;;2.38;79.98;102392.92;1642915;87;20221;-69
2022/01/23 10:16:26;;;;;;;18.67;10.58;;;;;;;2.40;80.00;102397.30;1642622;86;21478;-69
2022/01/23 10:19:11;;;;;;;23.02;14.73;;;;;;;2.42;80.01;102405.90;1630545;87;21674;-69
2022/01/23 10:21:56;;;;;;;56.55;31.57;;;;;;;2.44;80.00;102404.29;1642114;87;21042;-69
2022/01/23 10:24:42;;;;;;;27.25;15.88;;;;;;;2.44;79.97;102407.25;1623661;87;21091;-69
2022/01/23 10:27:26;;;;;;;32.23;15.23;;;;;;;2.43;80.00;102408.92;1642923;87;20999;-69
2022/01/23 10:30:23;;;;;;;23.25;11.80;;;;;;;2.42;79.99;102411.41;1642435;87;21339;-69
2022/01/23 10:33:18;;;;;;;19.52;11.35;;;;;;;2.43;80.00;102411.88;1643405;87;21357;-69
2022/01/23 10:36:15;;;;;;;21.42;12.30;;;;;;;2.45;80.05;102407.31;1643945;86;20951;-69
2022/01/23 10:39:04;;;;;;;20.02;11.65;;;;;;;2.47;80.09;102406.11;1644330;87;20972;-69
2022/01/23 10:42:00;;;;;;;20.35;10.95;;;;;;;2.49;80.09;102403.22;1645196;86;21534;-69
2022/01/23 10:47:48;;;;;;;91.08;39.38;;;;;;;2.49;80.12;102407.05;1636497;86;20109;-69
2022/01/23 10:50:24;;;;;;;20.40;11.70;;;;;;;2.53;80.16;102417.88;1643906;86;20972;-69
2022/01/23 10:53:09;;;;;;;26.05;13.90;;;;;;;2.53;80.41;102398.73;1662904;86;20940;-69
2022/01/23 10:55:55;;;;;;;21.02;12.30;;;;;;;2.64;80.16;102416.66;1663829;86;21565;-69
2022/01/23 10:58:39;;;;;;;;;;;;;;;2.64;80.17;102413.70;1666717;86;21493;-69
2022/01/23 11:01:24;;;;;;;36.90;27.27;;;;;;;2.68;80.22;102411.28;1645499;86;20101;-69
2022/01/23 11:04:14;;;;;;;100.02;38.48;;;;;;;2.71;80.19;102410.14;1664088;86;20952;-69
2022/01/23 11:07:08;;;;;;;22.85;13.00;;;;;;;2.74;80.20;102406.05;1662301;86;21067;-69
2022/01/23 11:10:06;;;;;;;23.42;12.80;;;;;;;2.75;80.16;102416.73;1656529;86;20984;-69
2022/01/23 11:18:45;;;;;;;22.37;13.60;;;;;;;2.76;80.22;102417.20;1662523;86;21004;-69
2022/01/23 11:21:30;;;;;;;85.32;38.65;;;;;;;2.78;80.15;102422.38;1662151;86;21036;-69
2022/01/23 11:24:15;;;;;;;29.20;16.40;;;;;;;2.79;80.20;102415.19;1652710;86;21123;-69
2022/01/23 11:27:02;;;;;;;30.25;15.55;;;;;;;2.82;80.21;102425.55;1663982;84;21067;-69
2022/01/23 11:30:00;;;;;;;23.98;14.40;;;;;;;2.83;80.22;102421.78;1663240;84;21098;-69
2022/01/23 11:32:44;;;;;;;23.83;14.10;;;;;;;2.86;80.27;102426.16;1664409;86;21066;-69
2022/01/23 11:35:29;;;;;;;21.15;13.93;;;;;;;2.88;80.21;102433.48;1666889;84;20980;-69
2022/01/23 11:38:19;;;;;;;103.78;33.85;;;;;;;2.90;80.24;102435.70;1656456;86;21121;-69
2022/01/23 11:56:41;;;;;;;21.80;13.55;;;;;;;3.02;80.33;102420.04;1659264;86;21535;-69
2022/01/23 11:59:28;;;;;;;70.37;46.25;;;;;;;3.05;80.31;102424.01;1662513;86;21563;-70
2022/01/23 12:02:29;;;;;;;21.85;12.18;;;;;;;3.05;80.32;102427.44;1543089;86;10000693;-69
2022/01/23 12:05:20;;;;;;;76.62;35.05;;;;;;;3.04;80.30;102429.92;1636758;86;20976;-69
2022/01/23 12:08:20;;;;;;;29.98;14.98;;;;;;;3.05;80.34;102441.49;1662406;86;21067;-70
2022/01/23 12:17:08;;;;;;;28.05;15.03;;;;;;;3.11;80.33;102444.72;1660144;85;21093;-69
2022/01/23 12:19:58;;;;;;;62.85;38.92;;;;;;;3.12;80.36;102452.42;1541874;86;10000571;-69
2022/01/23 12:22:48;;;;;;;39.53;20.57;;;;;;;3.13;80.36;102447.78;1652855;86;20912;-69
2022/01/23 12:25:48;;;;;;;33.70;18.23;;;;;;;3.14;80.36;102445.70;1664158;84;21414;-70
2022/01/23 12:28:38;;;;;;;36.25;19.65;;;;;;;3.15;80.33;102450.41;1657087;84;20916;-69
2022/01/23 12:31:24;;;;;;;39.55;20.82;;;;;;;3.14;80.38;102439.31;1661688;84;21424;-69
2022/01/23 12:34:09;;;;;;;41.28;22.00;;;;;;;3.14;80.36;102443.14;1652667;86;20936;-69
2022/01/23 12:36:56;;;;;;;41.98;21.62;;;;;;;3.12;80.32;102455.42;1657320;84;21048;-69
2022/01/23 12:39:40;;;;;;;168.52;105.35;;;;;;;3.09;80.32;102460.39;1652608;86;21354;-69
2022/01/23 12:42:25;;;;;;;49.25;25.17;;;;;;;3.04;80.31;102462.74;1662319;86;20948;-69
2022/01/23 12:45:45;;;;;;;61.75;35.48;;;;;;;2.97;80.30;102460.72;1658556;86;21004;-71
2022/01/23 12:48:43;;;;;;;51.30;26.05;;;;;;;2.91;80.35;102457.48;1641181;86;21745;-72
2022/01/23 12:51:36;;;;;;;57.83;26.23;;;;;;;2.83;80.36;102447.73;1646941;85;20931;-72
2022/01/23 12:54:25;;;;;;;55.65;25.43;;;;;;;2.79;80.43;102449.67;1644615;85;21337;-72
2022/01/23 12:57:14;;;;;;;77.47;30.48;;;;;;;2.75;80.43;102447.39;1643038;87;20955;-72
2022/01/23 13:00:03;;;;;;;95.38;78.80;;;;;;;2.71;80.45;102442.95;1646135;87;20927;-72
2022/01/23 13:02:51;;;;;;;66.77;32.33;;;;;;;2.71;80.50;102451.01;1644979;87;20962;-72
2022/01/23 13:05:34;;;;;;;;;;;;;;;2.68;80.47;102453.02;1645343;86;20955;-72
2022/01/23 13:08:25;;;;;;;54.40;28.20;;;;;;;2.67;80.55;102457.66;1640370;87;20172;-72
2022/01/23 13:11:31;;;;;;;55.08;26.68;;;;;;;2.65;80.50;102461.41;1638339;86;20960;-72
2022/01/23 13:13:59;;;;;;;;;;;;;;;2.64;80.54;102463.50;1626620;87;20983;-72
2022/01/23 13:17:24;;;;;;;97.17;75.67;;;;;;;2.63;80.59;102466.86;1645109;86;20144;-72
2022/01/23 13:31:59;;;;;;;76.35;36.33;;;;;;;2.58;80.61;102480.25;1646764;86;32537;-72
2022/01/23 13:34:52;;;;;;;76.35;33.67;;;;;;;2.57;80.60;102475.95;1645343;87;20967;-72
2022/01/23 13:37:41;;;;;;;117.93;60.05;;;;;;;2.56;80.62;102480.58;1643839;87;20952;-72
2022/01/23 13:40:37;;;;;;;75.50;32.05;;;;;;;2.55;80.65;102478.43;1645594;86;20951;-72
2022/01/23 13:53:07;;;;;;;71.20;30.82;;;;;;;2.54;80.67;102483.06;1661423;86;21003;-72
2022/01/23 13:58:32;;;;;;;93.92;37.23;;;;;;;2.53;80.66;102485.14;1663875;84;20983;-72
2022/01/23 14:01:31;;;;;;;72.85;31.20;;;;;;;2.51;80.70;102477.81;1663753;85;20948;-72
2022/01/23 14:04:01;;;;;;;71.42;31.37;;;;;;;2.52;80.72;102476.13;1663659;86;20921;-72
2022/01/23 14:06:47;;;;;;;78.85;35.00;;;;;;;2.53;80.73;102478.76;1664093;85;20956;-72
2022/01/23 14:09:39;;;;;;;102.40;41.05;;;;;;;2.53;80.75;102484.27;1655697;86;20953;-72
2022/01/23 14:12:25;;;;;;;81.55;36.40;;;;;;;2.53;80.77;102482.98;1656769;86;20993;-72
2022/01/23 14:15:13;;;;;;;;;;;;;;;2.53;80.75;102493.20;1666452;86;21032;-72
2022/01/23 14:18:09;;;;;;;254.80;155.40;;;;;;;2.54;80.87;102492.41;1664968;84;20133;-71
2022/01/23 14:21:05;;;;;;;96.80;37.65;;;;;;;2.52;80.77;102488.90;1664609;86;23267;-71
2022/01/23 14:23:54;;;;;;;101.65;39.75;;;;;;;2.51;80.81;102493.13;1660857;86;21502;-71
2022/01/23 14:26:40;;;;;;;89.13;37.53;;;;;;;2.50;80.81;102490.11;1663704;86;20920;-71
2022/01/23 14:29:26;;;;;;;89.90;38.20;;;;;;;2.48;80.79;102487.00;1664602;85;20939;-71
2022/01/23 14:32:28;;;;;;;84.32;37.23;;;;;;;2.49;80.82;102488.36;1663856;86;20917;-70
2022/01/23 14:35:28;;;;;;;96.37;38.15;;;;;;;2.47;80.81;102488.69;1663881;86;20980;-70
2022/01/23 14:38:19;;;;;;;136.32;81.90;;;;;;;2.46;80.83;102484.37;1664437;85;20992;-71
2022/01/23 14:41:09;;;;;;;85.90;37.23;;;;;;;2.47;80.92;102488.69;1659482;86;20944;-70
2022/01/23 14:43:54;;;;;;;89.20;37.35;;;;;;;2.47;80.86;102494.19;1662719;86;20921;-71
2022/01/23 14:46:39;;;;;;;83.92;35.90;;;;;;;2.45;80.85;102486.46;1664395;86;20956;-71
2022/01/23 14:49:27;;;;;;;81.08;35.38;;;;;;;2.43;80.85;102499.95;1652964;86;21515;-71
2022/01/23 14:52:13;;;;;;;93.05;36.42;;;;;;;2.42;80.85;102502.91;1646199;85;21392;-71
2022/01/23 14:54:58;;;;;;;89.72;37.98;;;;;;;2.41;80.88;102494.78;1643362;84;21547;-71
2022/01/23 14:57:45;;;;;;;109.35;44.27;;;;;;;2.41;80.90;102493.91;1647524;86;20892;-70
2022/01/23 15:00:32;;;;;;;84.58;35.55;;;;;;;2.40;80.90;102489.59;1648461;85;20963;-71
2022/01/23 15:03:19;;;;;;;84.22;36.75;;;;;;;2.39;80.89;102492.95;1646841;87;21325;-71
2022/01/23 15:06:04;;;;;;;85.57;35.92;;;;;;;2.38;80.89;102493.76;1646762;87;20915;-71
2022/01/23 15:08:49;;;;;;;92.63;40.00;;;;;;;2.37;80.91;102496.71;1646445;87;21264;-71
2022/01/23 15:11:35;;;;;;;99.07;40.67;;;;;;;2.37;80.94;102493.28;1623457;87;20900;-71
2022/01/23 15:14:19;;;;;;;87.10;36.67;;;;;;;2.35;80.95;102498.31;1625558;86;21498;-71